FNHU/NOV METAR and TAF weather

Enter ICAO airport designator
Station Type Date Time Source
FNHU METAR 2021/08/02 07:00 UTC NOAA

FNHU 020700Z VRB03KT 5000 FU 18/06 Q1027 NOSIG


Station Type Date Time Source
FNHU Decoded METAR 2021/08/02 07:00 UTC NOAA

Huambo Nova Lisboa , Angola (FNHU) 12-48S 015-45E 1701M
Aug 02, 2021 - 03:00 AM EDT / 2021.08.02 0700 UTC
Wind: Variable at 3 MPH (3 KT):0
Visibility: 3 mile(s):0
Weather: smoke
Temperature: 64 F (18 C)
Dew Point: 42 F (6 C)
Relative Humidity: 45%
Pressure (altimeter): 30.33 in. Hg (1027 hPa)
ob: FNHU 020700Z VRB03KT 5000 FU 18/06 Q1027 NOSIG
cycle: 7

Station Type Date Time Source
FNHU TAF 2021/08/04 12:54 UTC NOAA

TAF TAF FNHU 041100Z 0412/0424 12004KT CAVOK

Example: see airport list